Rozellville, Wisconsin
Current Conditions -  °F | °C
As of 8:06 AM on Friday 31 Oct 2014 (Local Time) from KMFI Reporting Station
Overcast Overcast  
Wind Chill: 22°   Ceiling: 2800
Heat Index: 31°   Visibility: 10mi
Dew Point: 23°   Wind: 10mph
Humidity: 72%   Direction: 10°N
Pressure: 30.33"   Gusts: 21mph
Location:  44.7914°N, 90.0669°W
Report Text: KMFI 311306Z AUTO 01009G18KT 10SM OVC028 M01/M05 A3033 RMK AO2 T10061050
Loading
Personal Weather Stations






























Interactive Weather Map
Tropical Storm Tracking
New forecast layout! Learn more

10-Day Weather Forecast

Advertisements
Track Severe Weather on mobile